sensor_id;sensor_type;location;lat;lon;timestamp;P1;durP1;ratioP1;P2;durP2;ratioP2
58768;SDS011;44536;47.474;19.056;2023-02-10T00:00:17;36.80;;;19.37;;
58768;SDS011;44536;47.474;19.056;2023-02-10T00:03:20;41.72;;;18.92;;
58768;SDS011;44536;47.474;19.056;2023-02-10T00:06:23;34.90;;;18.20;;
58768;SDS011;44536;47.474;19.056;2023-02-10T00:09:27;46.92;;;22.83;;
58768;SDS011;44536;47.474;19.056;2023-02-10T00:12:30;37.45;;;20.52;;
58768;SDS011;44536;47.474;19.056;2023-02-10T00:15:33;34.05;;;19.35;;
58768;SDS011;44536;47.474;19.056;2023-02-10T00:18:35;38.17;;;20.92;;
58768;SDS011;44536;47.474;19.056;2023-02-10T00:21:38;46.42;;;22.10;;
58768;SDS011;44536;47.474;19.056;2023-02-10T00:24:41;36.85;;;18.33;;
58768;SDS011;44536;47.474;19.056;2023-02-10T00:27:43;37.85;;;20.95;;
58768;SDS011;44536;47.474;19.056;2023-02-10T00:30:46;41.45;;;19.67;;
58768;SDS011;44536;47.474;19.056;2023-02-10T00:33:49;35.25;;;18.08;;
58768;SDS011;44536;47.474;19.056;2023-02-10T00:36:51;42.97;;;20.85;;
58768;SDS011;44536;47.474;19.056;2023-02-10T00:39:54;39.72;;;22.15;;
58768;SDS011;44536;47.474;19.056;2023-02-10T00:42:57;41.45;;;17.85;;
58768;SDS011;44536;47.474;19.056;2023-02-10T00:46:00;35.00;;;17.98;;
58768;SDS011;44536;47.474;19.056;2023-02-10T00:49:02;35.80;;;16.75;;
58768;SDS011;44536;47.474;19.056;2023-02-10T00:52:05;40.12;;;18.92;;
58768;SDS011;44536;47.474;19.056;2023-02-10T00:55:08;34.03;;;18.35;;
58768;SDS011;44536;47.474;19.056;2023-02-10T00:58:11;40.12;;;19.67;;
58768;SDS011;44536;47.474;19.056;2023-02-10T01:01:13;34.77;;;21.20;;
58768;SDS011;44536;47.474;19.056;2023-02-10T01:04:16;37.92;;;21.08;;
58768;SDS011;44536;47.474;19.056;2023-02-10T01:07:19;35.57;;;18.97;;
58768;SDS011;44536;47.474;19.056;2023-02-10T01:10:22;34.50;;;19.30;;
58768;SDS011;44536;47.474;19.056;2023-02-10T01:13:24;30.27;;;18.60;;
58768;SDS011;44536;47.474;19.056;2023-02-10T01:16:27;27.58;;;16.73;;
58768;SDS011;44536;47.474;19.056;2023-02-10T01:19:30;38.40;;;18.98;;
58768;SDS011;44536;47.474;19.056;2023-02-10T01:22:33;33.42;;;16.50;;
58768;SDS011;44536;47.474;19.056;2023-02-10T01:25:39;34.60;;;17.60;;
58768;SDS011;44536;47.474;19.056;2023-02-10T01:28:42;34.20;;;17.98;;
58768;SDS011;44536;47.474;19.056;2023-02-10T01:31:45;31.30;;;18.58;;
58768;SDS011;44536;47.474;19.056;2023-02-10T01:34:48;32.33;;;16.10;;
58768;SDS011;44536;47.474;19.056;2023-02-10T01:37:50;35.72;;;15.07;;
58768;SDS011;44536;47.474;19.056;2023-02-10T01:40:53;32.95;;;16.58;;
58768;SDS011;44536;47.474;19.056;2023-02-10T01:44:06;29.00;;;15.82;;
58768;SDS011;44536;47.474;19.056;2023-02-10T01:47:29;39.37;;;15.93;;
58768;SDS011;44536;47.474;19.056;2023-02-10T01:50:34;32.40;;;15.10;;
58768;SDS011;44536;47.474;19.056;2023-02-10T01:53:40;28.00;;;16.42;;
58768;SDS011;44536;47.474;19.056;2023-02-10T01:56:45;34.30;;;15.27;;
58768;SDS011;44536;47.474;19.056;2023-02-10T01:59:49;33.85;;;16.75;;
58768;SDS011;44536;47.474;19.056;2023-02-10T02:02:52;35.50;;;17.12;;
58768;SDS011;44536;47.474;19.056;2023-02-10T02:05:55;40.75;;;17.23;;
58768;SDS011;44536;47.474;19.056;2023-02-10T02:08:58;37.78;;;19.25;;
58768;SDS011;44536;47.474;19.056;2023-02-10T02:18:45;34.97;;;18.58;;
58768;SDS011;44536;47.474;19.056;2023-02-10T02:25:33;32.80;;;16.62;;
58768;SDS011;44536;47.474;19.056;2023-02-10T02:35:19;40.53;;;17.67;;
58768;SDS011;44536;47.474;19.056;2023-02-10T02:38:28;34.40;;;17.40;;
58768;SDS011;44536;47.474;19.056;2023-02-10T02:41:31;32.28;;;19.37;;
58768;SDS011;44536;47.474;19.056;2023-02-10T02:44:37;29.77;;;16.48;;
58768;SDS011;44536;47.474;19.056;2023-02-10T02:47:45;35.40;;;15.88;;
58768;SDS011;44536;47.474;19.056;2023-02-10T02:54:18;28.33;;;13.90;;
58768;SDS011;44536;47.474;19.056;2023-02-10T02:58:04;30.77;;;16.92;;
58768;SDS011;44536;47.474;19.056;2023-02-10T03:01:14;31.45;;;16.62;;
58768;SDS011;44536;47.474;19.056;2023-02-10T03:04:27;28.67;;;14.87;;
58768;SDS011;44536;47.474;19.056;2023-02-10T03:07:35;30.15;;;15.13;;
58768;SDS011;44536;47.474;19.056;2023-02-10T03:10:38;39.50;;;17.85;;
58768;SDS011;44536;47.474;19.056;2023-02-10T03:13:40;27.37;;;16.48;;
58768;SDS011;44536;47.474;19.056;2023-02-10T03:16:43;33.67;;;13.85;;
58768;SDS011;44536;47.474;19.056;2023-02-10T03:19:45;28.55;;;15.13;;
58768;SDS011;44536;47.474;19.056;2023-02-10T03:22:48;28.95;;;14.05;;
58768;SDS011;44536;47.474;19.056;2023-02-10T03:25:50;28.52;;;13.62;;
58768;SDS011;44536;47.474;19.056;2023-02-10T03:28:53;26.83;;;15.50;;
58768;SDS011;44536;47.474;19.056;2023-02-10T03:31:56;35.40;;;16.48;;
58768;SDS011;44536;47.474;19.056;2023-02-10T03:34:59;34.05;;;13.85;;
58768;SDS011;44536;47.474;19.056;2023-02-10T03:38:02;24.17;;;13.13;;
58768;SDS011;44536;47.474;19.056;2023-02-10T03:41:05;33.70;;;15.27;;
58768;SDS011;44536;47.474;19.056;2023-02-10T03:44:07;29.02;;;15.93;;
58768;SDS011;44536;47.474;19.056;2023-02-10T03:47:10;32.60;;;17.67;;
58768;SDS011;44536;47.474;19.056;2023-02-10T03:50:13;39.85;;;15.30;;
58768;SDS011;44536;47.474;19.056;2023-02-10T03:53:16;25.37;;;13.02;;
58768;SDS011;44536;47.474;19.056;2023-02-10T03:56:18;24.45;;;13.23;;
58768;SDS011;44536;47.474;19.056;2023-02-10T03:59:21;28.12;;;13.23;;
58768;SDS011;44536;47.474;19.056;2023-02-10T04:02:23;31.37;;;15.85;;
58768;SDS011;44536;47.474;19.056;2023-02-10T04:05:26;26.62;;;13.25;;
58768;SDS011;44536;47.474;19.056;2023-02-10T04:08:29;23.15;;;12.27;;
58768;SDS011;44536;47.474;19.056;2023-02-10T04:11:31;22.13;;;12.65;;
58768;SDS011;44536;47.474;19.056;2023-02-10T04:14:34;24.95;;;12.35;;
58768;SDS011;44536;47.474;19.056;2023-02-10T04:17:37;28.25;;;14.02;;
58768;SDS011;44536;47.474;19.056;2023-02-10T04:20:39;32.13;;;15.25;;
58768;SDS011;44536;47.474;19.056;2023-02-10T04:23:42;24.73;;;11.87;;
58768;SDS011;44536;47.474;19.056;2023-02-10T04:26:44;23.23;;;12.70;;
58768;SDS011;44536;47.474;19.056;2023-02-10T04:29:46;29.35;;;12.73;;
58768;SDS011;44536;47.474;19.056;2023-02-10T04:32:49;28.42;;;12.27;;
58768;SDS011;44536;47.474;19.056;2023-02-10T04:35:52;24.23;;;10.60;;
58768;SDS011;44536;47.474;19.056;2023-02-10T04:38:55;23.87;;;12.02;;
58768;SDS011;44536;47.474;19.056;2023-02-10T04:41:58;26.47;;;13.80;;
58768;SDS011;44536;47.474;19.056;2023-02-10T04:45:00;28.00;;;14.73;;
58768;SDS011;44536;47.474;19.056;2023-02-10T04:48:03;20.98;;;12.45;;
58768;SDS011;44536;47.474;19.056;2023-02-10T04:51:10;26.05;;;15.35;;
58768;SDS011;44536;47.474;19.056;2023-02-10T04:54:14;23.58;;;12.43;;
58768;SDS011;44536;47.474;19.056;2023-02-10T04:57:16;24.92;;;12.95;;
58768;SDS011;44536;47.474;19.056;2023-02-10T05:00:19;27.48;;;12.48;;
58768;SDS011;44536;47.474;19.056;2023-02-10T05:03:22;30.10;;;13.67;;
58768;SDS011;44536;47.474;19.056;2023-02-10T05:06:25;27.17;;;13.60;;
58768;SDS011;44536;47.474;19.056;2023-02-10T05:09:28;30.20;;;13.80;;
58768;SDS011;44536;47.474;19.056;2023-02-10T05:12:31;29.20;;;13.82;;
58768;SDS011;44536;47.474;19.056;2023-02-10T05:15:33;24.25;;;13.75;;
58768;SDS011;44536;47.474;19.056;2023-02-10T05:18:35;23.92;;;12.50;;
58768;SDS011;44536;47.474;19.056;2023-02-10T05:21:38;27.48;;;13.75;;
58768;SDS011;44536;47.474;19.056;2023-02-10T05:24:41;33.67;;;15.02;;
58768;SDS011;44536;47.474;19.056;2023-02-10T05:27:46;27.52;;;14.23;;
58768;SDS011;44536;47.474;19.056;2023-02-10T05:30:48;33.35;;;16.95;;
58768;SDS011;44536;47.474;19.056;2023-02-10T05:33:51;28.75;;;13.48;;
58768;SDS011;44536;47.474;19.056;2023-02-10T05:36:55;31.90;;;13.48;;
58768;SDS011;44536;47.474;19.056;2023-02-10T05:39:58;36.95;;;17.75;;
58768;SDS011;44536;47.474;19.056;2023-02-10T05:43:01;31.40;;;16.95;;
58768;SDS011;44536;47.474;19.056;2023-02-10T05:46:03;27.58;;;13.32;;
58768;SDS011;44536;47.474;19.056;2023-02-10T05:49:06;29.90;;;14.35;;
58768;SDS011;44536;47.474;19.056;2023-02-10T05:52:08;30.42;;;15.63;;
58768;SDS011;44536;47.474;19.056;2023-02-10T05:55:11;26.17;;;13.83;;
58768;SDS011;44536;47.474;19.056;2023-02-10T05:58:13;26.57;;;15.00;;
58768;SDS011;44536;47.474;19.056;2023-02-10T06:01:16;33.85;;;13.77;;
58768;SDS011;44536;47.474;19.056;2023-02-10T06:04:19;26.95;;;16.85;;
58768;SDS011;44536;47.474;19.056;2023-02-10T06:07:21;27.77;;;13.73;;
58768;SDS011;44536;47.474;19.056;2023-02-10T06:10:24;29.75;;;15.50;;
58768;SDS011;44536;47.474;19.056;2023-02-10T06:13:26;30.95;;;14.63;;
58768;SDS011;44536;47.474;19.056;2023-02-10T06:16:28;32.88;;;15.40;;
58768;SDS011;44536;47.474;19.056;2023-02-10T06:19:31;30.83;;;15.53;;
58768;SDS011;44536;47.474;19.056;2023-02-10T06:22:34;23.48;;;14.10;;
58768;SDS011;44536;47.474;19.056;2023-02-10T06:25:36;24.10;;;12.88;;
58768;SDS011;44536;47.474;19.056;2023-02-10T06:28:41;28.50;;;12.93;;
58768;SDS011;44536;47.474;19.056;2023-02-10T06:31:43;25.15;;;13.68;;
58768;SDS011;44536;47.474;19.056;2023-02-10T06:37:50;27.45;;;14.52;;
58768;SDS011;44536;47.474;19.056;2023-02-10T06:40:59;27.67;;;13.05;;
58768;SDS011;44536;47.474;19.056;2023-02-10T06:44:02;30.17;;;14.27;;
58768;SDS011;44536;47.474;19.056;2023-02-10T06:47:05;27.48;;;14.68;;
58768;SDS011;44536;47.474;19.056;2023-02-10T06:50:09;35.40;;;14.45;;
58768;SDS011;44536;47.474;19.056;2023-02-10T06:53:11;28.50;;;15.48;;
58768;SDS011;44536;47.474;19.056;2023-02-10T06:56:14;25.70;;;13.30;;
58768;SDS011;44536;47.474;19.056;2023-02-10T06:59:16;27.30;;;15.20;;
58768;SDS011;44536;47.474;19.056;2023-02-10T07:02:18;32.03;;;15.85;;
58768;SDS011;44536;47.474;19.056;2023-02-10T07:05:21;33.00;;;17.60;;
58768;SDS011;44536;47.474;19.056;2023-02-10T07:08:23;36.22;;;16.65;;
58768;SDS011;44536;47.474;19.056;2023-02-10T07:11:26;28.62;;;15.75;;
58768;SDS011;44536;47.474;19.056;2023-02-10T07:14:28;33.35;;;17.62;;
58768;SDS011;44536;47.474;19.056;2023-02-10T07:17:31;26.47;;;14.40;;
58768;SDS011;44536;47.474;19.056;2023-02-10T07:20:39;29.00;;;16.55;;
58768;SDS011;44536;47.474;19.056;2023-02-10T07:23:42;39.47;;;16.42;;
58768;SDS011;44536;47.474;19.056;2023-02-10T07:26:44;37.78;;;16.73;;
58768;SDS011;44536;47.474;19.056;2023-02-10T07:29:47;42.03;;;21.20;;
58768;SDS011;44536;47.474;19.056;2023-02-10T07:32:49;41.83;;;21.73;;
58768;SDS011;44536;47.474;19.056;2023-02-10T07:35:52;41.85;;;22.48;;
58768;SDS011;44536;47.474;19.056;2023-02-10T07:38:54;47.72;;;24.98;;
58768;SDS011;44536;47.474;19.056;2023-02-10T07:41:57;54.67;;;26.17;;
58768;SDS011;44536;47.474;19.056;2023-02-10T07:45:03;42.75;;;24.95;;
58768;SDS011;44536;47.474;19.056;2023-02-10T07:48:06;42.03;;;22.23;;
58768;SDS011;44536;47.474;19.056;2023-02-10T07:51:08;44.70;;;22.08;;
58768;SDS011;44536;47.474;19.056;2023-02-10T07:54:11;40.07;;;21.70;;
58768;SDS011;44536;47.474;19.056;2023-02-10T07:57:13;42.08;;;22.83;;
58768;SDS011;44536;47.474;19.056;2023-02-10T08:00:16;54.40;;;25.25;;
58768;SDS011;44536;47.474;19.056;2023-02-10T08:03:18;46.17;;;24.20;;
58768;SDS011;44536;47.474;19.056;2023-02-10T08:06:21;45.38;;;25.92;;
58768;SDS011;44536;47.474;19.056;2023-02-10T08:09:25;45.75;;;25.75;;
58768;SDS011;44536;47.474;19.056;2023-02-10T08:12:28;64.35;;;31.55;;
58768;SDS011;44536;47.474;19.056;2023-02-10T08:15:31;51.85;;;29.85;;
58768;SDS011;44536;47.474;19.056;2023-02-10T08:18:40;55.03;;;30.83;;
58768;SDS011;44536;47.474;19.056;2023-02-10T08:21:43;63.78;;;33.30;;
58768;SDS011;44536;47.474;19.056;2023-02-10T08:24:45;53.00;;;31.50;;
58768;SDS011;44536;47.474;19.056;2023-02-10T08:27:48;55.10;;;33.77;;
58768;SDS011;44536;47.474;19.056;2023-02-10T08:30:50;64.68;;;37.65;;
58768;SDS011;44536;47.474;19.056;2023-02-10T08:33:53;72.35;;;42.70;;
58768;SDS011;44536;47.474;19.056;2023-02-10T08:36:56;79.10;;;42.47;;
58768;SDS011;44536;47.474;19.056;2023-02-10T08:39:58;80.73;;;43.40;;
58768;SDS011;44536;47.474;19.056;2023-02-10T08:43:01;64.15;;;39.47;;
58768;SDS011;44536;47.474;19.056;2023-02-10T08:46:04;94.53;;;46.90;;
58768;SDS011;44536;47.474;19.056;2023-02-10T08:49:07;75.80;;;40.55;;
58768;SDS011;44536;47.474;19.056;2023-02-10T08:52:10;69.53;;;40.08;;
58768;SDS011;44536;47.474;19.056;2023-02-10T08:55:12;66.95;;;38.55;;
58768;SDS011;44536;47.474;19.056;2023-02-10T08:58:14;74.30;;;42.07;;
58768;SDS011;44536;47.474;19.056;2023-02-10T09:01:18;64.12;;;40.53;;
58768;SDS011;44536;47.474;19.056;2023-02-10T09:04:26;59.17;;;41.75;;
58768;SDS011;44536;47.474;19.056;2023-02-10T09:07:28;66.80;;;42.42;;
58768;SDS011;44536;47.474;19.056;2023-02-10T09:10:31;74.03;;;43.87;;
58768;SDS011;44536;47.474;19.056;2023-02-10T09:13:33;71.65;;;40.47;;
58768;SDS011;44536;47.474;19.056;2023-02-10T09:16:36;76.35;;;45.60;;
58768;SDS011;44536;47.474;19.056;2023-02-10T09:19:39;69.10;;;38.63;;
58768;SDS011;44536;47.474;19.056;2023-02-10T09:22:41;71.33;;;40.27;;
58768;SDS011;44536;47.474;19.056;2023-02-10T09:25:51;56.08;;;33.25;;
58768;SDS011;44536;47.474;19.056;2023-02-10T09:28:55;62.97;;;31.95;;
58768;SDS011;44536;47.474;19.056;2023-02-10T09:31:57;57.72;;;33.95;;
58768;SDS011;44536;47.474;19.056;2023-02-10T09:35:00;57.63;;;31.60;;
58768;SDS011;44536;47.474;19.056;2023-02-10T09:38:02;52.67;;;30.10;;
58768;SDS011;44536;47.474;19.056;2023-02-10T09:44:20;50.95;;;29.08;;
58768;SDS011;44536;47.474;19.056;2023-02-10T09:54:18;29.58;;;13.07;;
58768;SDS011;44536;47.474;19.056;2023-02-10T09:57:22;24.95;;;12.77;;
58768;SDS011;44536;47.474;19.056;2023-02-10T10:00:58;22.13;;;10.27;;
58768;SDS011;44536;47.474;19.056;2023-02-10T10:07:23;20.52;;;10.50;;
58768;SDS011;44536;47.474;19.056;2023-02-10T10:10:32;19.87;;;10.75;;
58768;SDS011;44536;47.474;19.056;2023-02-10T10:13:42;20.90;;;11.32;;
58768;SDS011;44536;47.474;19.056;2023-02-10T10:16:48;19.45;;;10.85;;
58768;SDS011;44536;47.474;19.056;2023-02-10T10:30:17;18.55;;;11.75;;
58768;SDS011;44536;47.474;19.056;2023-02-10T10:33:22;20.98;;;12.25;;
58768;SDS011;44536;47.474;19.056;2023-02-10T10:36:46;18.02;;;9.35;;
58768;SDS011;44536;47.474;19.056;2023-02-10T10:40:03;19.58;;;11.20;;
58768;SDS011;44536;47.474;19.056;2023-02-10T10:43:08;18.42;;;10.27;;
58768;SDS011;44536;47.474;19.056;2023-02-10T10:49:43;18.50;;;11.32;;
58768;SDS011;44536;47.474;19.056;2023-02-10T10:52:46;19.08;;;10.70;;
58768;SDS011;44536;47.474;19.056;2023-02-10T10:55:54;20.73;;;10.40;;
58768;SDS011;44536;47.474;19.056;2023-02-10T10:58:59;16.30;;;9.52;;
58768;SDS011;44536;47.474;19.056;2023-02-10T11:05:25;17.12;;;10.63;;
58768;SDS011;44536;47.474;19.056;2023-02-10T11:08:31;15.07;;;9.05;;
58768;SDS011;44536;47.474;19.056;2023-02-10T11:11:40;15.80;;;8.48;;
58768;SDS011;44536;47.474;19.056;2023-02-10T11:14:46;23.85;;;11.07;;
58768;SDS011;44536;47.474;19.056;2023-02-10T11:17:50;16.70;;;10.02;;
58768;SDS011;44536;47.474;19.056;2023-02-10T11:24:20;20.07;;;10.27;;
58768;SDS011;44536;47.474;19.056;2023-02-10T11:27:22;20.98;;;11.85;;
58768;SDS011;44536;47.474;19.056;2023-02-10T11:33:31;22.13;;;10.63;;
58768;SDS011;44536;47.474;19.056;2023-02-10T11:36:37;15.50;;;9.52;;
58768;SDS011;44536;47.474;19.056;2023-02-10T11:39:43;17.10;;;9.98;;
58768;SDS011;44536;47.474;19.056;2023-02-10T11:42:48;16.42;;;9.82;;
58768;SDS011;44536;47.474;19.056;2023-02-10T11:45:56;21.23;;;11.60;;
58768;SDS011;44536;47.474;19.056;2023-02-10T11:49:03;20.80;;;10.90;;
58768;SDS011;44536;47.474;19.056;2023-02-10T11:52:18;19.77;;;10.70;;
58768;SDS011;44536;47.474;19.056;2023-02-10T11:55:47;17.92;;;11.45;;
58768;SDS011;44536;47.474;19.056;2023-02-10T11:59:04;17.25;;;11.20;;
58768;SDS011;44536;47.474;19.056;2023-02-10T12:02:24;20.02;;;11.48;;
58768;SDS011;44536;47.474;19.056;2023-02-10T12:18:52;17.12;;;10.98;;
58768;SDS011;44536;47.474;19.056;2023-02-10T12:25:19;18.00;;;11.23;;
58768;SDS011;44536;47.474;19.056;2023-02-10T12:32:11;18.23;;;10.75;;
58768;SDS011;44536;47.474;19.056;2023-02-10T12:51:51;20.25;;;12.57;;
58768;SDS011;44536;47.474;19.056;2023-02-10T13:01:29;22.45;;;11.48;;
58768;SDS011;44536;47.474;19.056;2023-02-10T13:04:44;21.67;;;12.10;;
58768;SDS011;44536;47.474;19.056;2023-02-10T13:07:53;20.52;;;10.68;;
58768;SDS011;44536;47.474;19.056;2023-02-10T13:11:13;19.25;;;10.05;;
58768;SDS011;44536;47.474;19.056;2023-02-10T13:14:23;18.70;;;10.48;;
58768;SDS011;44536;47.474;19.056;2023-02-10T13:17:32;22.08;;;10.50;;
58768;SDS011;44536;47.474;19.056;2023-02-10T13:20:48;20.52;;;11.68;;
58768;SDS011;44536;47.474;19.056;2023-02-10T13:24:11;17.73;;;10.18;;
58768;SDS011;44536;47.474;19.056;2023-02-10T13:34:18;16.75;;;10.25;;
58768;SDS011;44536;47.474;19.056;2023-02-10T13:43:55;20.37;;;11.98;;
58768;SDS011;44536;47.474;19.056;2023-02-10T13:56:37;18.48;;;11.40;;
58768;SDS011;44536;47.474;19.056;2023-02-10T13:59:39;21.42;;;11.23;;
58768;SDS011;44536;47.474;19.056;2023-02-10T14:02:43;18.77;;;10.70;;
58768;SDS011;44536;47.474;19.056;2023-02-10T14:05:58;19.48;;;10.80;;
58768;SDS011;44536;47.474;19.056;2023-02-10T14:09:19;18.58;;;11.63;;
58768;SDS011;44536;47.474;19.056;2023-02-10T14:12:24;19.45;;;12.20;;
58768;SDS011;44536;47.474;19.056;2023-02-10T14:15:38;19.62;;;10.90;;
58768;SDS011;44536;47.474;19.056;2023-02-10T14:18:43;24.55;;;11.23;;
58768;SDS011;44536;47.474;19.056;2023-02-10T14:21:50;19.73;;;9.63;;
58768;SDS011;44536;47.474;19.056;2023-02-10T14:24:54;21.92;;;10.73;;
58768;SDS011;44536;47.474;19.056;2023-02-10T14:28:01;21.33;;;10.75;;
58768;SDS011;44536;47.474;19.056;2023-02-10T14:31:10;19.40;;;10.52;;
58768;SDS011;44536;47.474;19.056;2023-02-10T14:37:27;19.83;;;11.65;;
58768;SDS011;44536;47.474;19.056;2023-02-10T14:40:30;17.85;;;9.27;;
58768;SDS011;44536;47.474;19.056;2023-02-10T14:46:37;19.90;;;10.18;;
58768;SDS011;44536;47.474;19.056;2023-02-10T14:49:40;22.03;;;11.07;;
58768;SDS011;44536;47.474;19.056;2023-02-10T14:52:46;21.02;;;11.12;;
58768;SDS011;44536;47.474;19.056;2023-02-10T14:55:58;23.62;;;11.93;;
58768;SDS011;44536;47.474;19.056;2023-02-10T14:59:01;17.75;;;9.77;;
58768;SDS011;44536;47.474;19.056;2023-02-10T15:02:07;23.43;;;11.40;;
58768;SDS011;44536;47.474;19.056;2023-02-10T15:05:18;23.38;;;12.32;;
58768;SDS011;44536;47.474;19.056;2023-02-10T15:08:25;21.17;;;10.38;;
58768;SDS011;44536;47.474;19.056;2023-02-10T15:11:34;21.17;;;10.98;;
58768;SDS011;44536;47.474;19.056;2023-02-10T15:18:17;22.42;;;10.85;;
58768;SDS011;44536;47.474;19.056;2023-02-10T15:21:31;22.00;;;11.60;;
58768;SDS011;44536;47.474;19.056;2023-02-10T15:24:36;17.87;;;9.45;;
58768;SDS011;44536;47.474;19.056;2023-02-10T15:27:39;20.92;;;10.02;;
58768;SDS011;44536;47.474;19.056;2023-02-10T15:34:02;19.75;;;10.05;;
58768;SDS011;44536;47.474;19.056;2023-02-10T15:37:23;17.95;;;9.90;;
58768;SDS011;44536;47.474;19.056;2023-02-10T15:40:34;18.15;;;9.95;;
58768;SDS011;44536;47.474;19.056;2023-02-10T15:43:36;19.85;;;11.43;;
58768;SDS011;44536;47.474;19.056;2023-02-10T15:46:41;18.40;;;11.45;;
58768;SDS011;44536;47.474;19.056;2023-02-10T15:49:44;23.42;;;14.10;;
58768;SDS011;44536;47.474;19.056;2023-02-10T15:52:51;23.55;;;12.25;;
58768;SDS011;44536;47.474;19.056;2023-02-10T15:55:53;25.23;;;12.65;;
58768;SDS011;44536;47.474;19.056;2023-02-10T15:58:56;21.67;;;10.50;;
58768;SDS011;44536;47.474;19.056;2023-02-10T16:02:02;21.98;;;12.30;;
58768;SDS011;44536;47.474;19.056;2023-02-10T16:05:06;20.83;;;12.30;;
58768;SDS011;44536;47.474;19.056;2023-02-10T16:08:19;22.10;;;11.33;;
58768;SDS011;44536;47.474;19.056;2023-02-10T16:11:23;25.50;;;12.68;;
58768;SDS011;44536;47.474;19.056;2023-02-10T16:14:25;23.00;;;12.17;;
58768;SDS011;44536;47.474;19.056;2023-02-10T16:17:30;23.38;;;13.65;;
58768;SDS011;44536;47.474;19.056;2023-02-10T16:20:39;24.75;;;11.32;;
58768;SDS011;44536;47.474;19.056;2023-02-10T16:23:42;26.67;;;13.68;;
58768;SDS011;44536;47.474;19.056;2023-02-10T16:26:47;23.05;;;10.90;;
58768;SDS011;44536;47.474;19.056;2023-02-10T16:29:50;19.70;;;11.30;;
58768;SDS011;44536;47.474;19.056;2023-02-10T16:32:53;23.38;;;12.70;;
58768;SDS011;44536;47.474;19.056;2023-02-10T16:35:56;29.45;;;14.10;;
58768;SDS011;44536;47.474;19.056;2023-02-10T16:39:04;33.45;;;14.05;;
58768;SDS011;44536;47.474;19.056;2023-02-10T16:42:12;26.20;;;12.32;;
58768;SDS011;44536;47.474;19.056;2023-02-10T16:45:14;23.90;;;12.90;;
58768;SDS011;44536;47.474;19.056;2023-02-10T16:48:17;30.35;;;12.45;;
58768;SDS011;44536;47.474;19.056;2023-02-10T16:51:19;23.73;;;12.37;;
58768;SDS011;44536;47.474;19.056;2023-02-10T16:54:22;25.77;;;13.60;;
58768;SDS011;44536;47.474;19.056;2023-02-10T16:57:25;22.33;;;12.25;;
58768;SDS011;44536;47.474;19.056;2023-02-10T17:00:28;28.95;;;13.27;;
58768;SDS011;44536;47.474;19.056;2023-02-10T17:03:30;25.35;;;12.82;;
58768;SDS011;44536;47.474;19.056;2023-02-10T17:06:33;22.45;;;12.45;;
58768;SDS011;44536;47.474;19.056;2023-02-10T17:09:41;22.33;;;13.27;;
58768;SDS011;44536;47.474;19.056;2023-02-10T17:12:43;32.63;;;13.95;;
58768;SDS011;44536;47.474;19.056;2023-02-10T17:15:45;23.77;;;13.20;;
58768;SDS011;44536;47.474;19.056;2023-02-10T17:18:48;26.10;;;15.20;;
58768;SDS011;44536;47.474;19.056;2023-02-10T17:21:50;26.73;;;14.32;;
58768;SDS011;44536;47.474;19.056;2023-02-10T17:24:53;27.87;;;13.50;;
58768;SDS011;44536;47.474;19.056;2023-02-10T17:27:55;29.10;;;13.18;;
58768;SDS011;44536;47.474;19.056;2023-02-10T17:30:58;24.55;;;13.55;;
58768;SDS011;44536;47.474;19.056;2023-02-10T17:34:01;23.95;;;12.77;;
58768;SDS011;44536;47.474;19.056;2023-02-10T17:37:04;26.30;;;13.87;;
58768;SDS011;44536;47.474;19.056;2023-02-10T17:40:11;25.98;;;11.57;;
58768;SDS011;44536;47.474;19.056;2023-02-10T17:43:26;23.50;;;13.50;;
58768;SDS011;44536;47.474;19.056;2023-02-10T17:46:28;24.63;;;12.93;;
58768;SDS011;44536;47.474;19.056;2023-02-10T17:49:31;31.23;;;15.32;;
58768;SDS011;44536;47.474;19.056;2023-02-10T17:52:35;24.58;;;12.57;;
58768;SDS011;44536;47.474;19.056;2023-02-10T17:55:39;27.92;;;13.90;;
58768;SDS011;44536;47.474;19.056;2023-02-10T17:58:43;22.87;;;12.93;;
58768;SDS011;44536;47.474;19.056;2023-02-10T18:01:45;29.30;;;15.50;;
58768;SDS011;44536;47.474;19.056;2023-02-10T18:04:48;29.67;;;15.60;;
58768;SDS011;44536;47.474;19.056;2023-02-10T18:07:54;26.17;;;13.88;;
58768;SDS011;44536;47.474;19.056;2023-02-10T18:10:57;23.75;;;14.55;;
58768;SDS011;44536;47.474;19.056;2023-02-10T18:13:59;29.63;;;15.18;;
58768;SDS011;44536;47.474;19.056;2023-02-10T18:17:03;26.55;;;13.45;;
58768;SDS011;44536;47.474;19.056;2023-02-10T18:20:10;30.00;;;14.60;;
58768;SDS011;44536;47.474;19.056;2023-02-10T18:23:13;26.58;;;16.45;;
58768;SDS011;44536;47.474;19.056;2023-02-10T18:26:16;30.08;;;15.73;;
58768;SDS011;44536;47.474;19.056;2023-02-10T18:29:19;30.35;;;17.00;;
58768;SDS011;44536;47.474;19.056;2023-02-10T18:32:21;29.15;;;14.73;;
58768;SDS011;44536;47.474;19.056;2023-02-10T18:35:24;28.67;;;16.70;;
58768;SDS011;44536;47.474;19.056;2023-02-10T18:38:26;31.55;;;17.08;;
58768;SDS011;44536;47.474;19.056;2023-02-10T18:41:29;32.70;;;15.33;;
58768;SDS011;44536;47.474;19.056;2023-02-10T18:44:31;29.37;;;16.02;;
58768;SDS011;44536;47.474;19.056;2023-02-10T18:47:34;31.70;;;17.13;;
58768;SDS011;44536;47.474;19.056;2023-02-10T18:50:36;31.17;;;16.30;;
58768;SDS011;44536;47.474;19.056;2023-02-10T18:53:39;39.33;;;18.60;;
58768;SDS011;44536;47.474;19.056;2023-02-10T18:56:41;35.40;;;19.75;;
58768;SDS011;44536;47.474;19.056;2023-02-10T18:59:44;39.22;;;18.35;;
58768;SDS011;44536;47.474;19.056;2023-02-10T19:02:46;30.90;;;18.90;;
58768;SDS011;44536;47.474;19.056;2023-02-10T19:05:49;28.45;;;17.40;;
58768;SDS011;44536;47.474;19.056;2023-02-10T19:08:52;38.97;;;18.80;;
58768;SDS011;44536;47.474;19.056;2023-02-10T19:11:54;32.97;;;19.23;;
58768;SDS011;44536;47.474;19.056;2023-02-10T19:14:56;40.47;;;18.67;;
58768;SDS011;44536;47.474;19.056;2023-02-10T19:17:59;39.37;;;19.47;;
58768;SDS011;44536;47.474;19.056;2023-02-10T19:21:02;32.28;;;18.10;;
58768;SDS011;44536;47.474;19.056;2023-02-10T19:24:05;43.95;;;20.45;;
58768;SDS011;44536;47.474;19.056;2023-02-10T19:27:07;38.55;;;18.90;;
58768;SDS011;44536;47.474;19.056;2023-02-10T19:30:13;32.33;;;19.50;;
58768;SDS011;44536;47.474;19.056;2023-02-10T19:33:15;35.85;;;18.15;;
58768;SDS011;44536;47.474;19.056;2023-02-10T19:36:19;34.80;;;19.10;;
58768;SDS011;44536;47.474;19.056;2023-02-10T19:39:21;34.05;;;19.37;;
58768;SDS011;44536;47.474;19.056;2023-02-10T19:42:24;40.25;;;21.77;;
58768;SDS011;44536;47.474;19.056;2023-02-10T19:45:26;36.45;;;19.65;;
58768;SDS011;44536;47.474;19.056;2023-02-10T19:48:29;41.53;;;22.10;;
58768;SDS011;44536;47.474;19.056;2023-02-10T19:51:34;42.13;;;21.40;;
58768;SDS011;44536;47.474;19.056;2023-02-10T19:54:36;41.23;;;23.53;;
58768;SDS011;44536;47.474;19.056;2023-02-10T19:57:38;39.20;;;22.02;;
58768;SDS011;44536;47.474;19.056;2023-02-10T20:00:41;43.92;;;23.98;;
58768;SDS011;44536;47.474;19.056;2023-02-10T20:03:45;41.33;;;21.45;;